Flag for France

Past Weather in 43°23'15.9"N, 1°39'51.4"W, France — Yesterday and Last 2 Weeks

Currently: 64 °F. Passing clouds. (Weather station: Biarritz Airport, France). See more current weather

Past Weather in 43°23'15.9"N, 1°39'51.4"W — Graph

°F

43°23'15.9"N, 1°39'51.4"W Temperature Yesterday

Maximum temperature yesterday: 57 °F (at 12:30 pm)
Minimum temperature yesterday: 48 °F (at 9:30 pm)
Average temperature yesterday: 52 °F

High & Low Weather Summary for the Past Weeks

 TemperatureHumidityPressure
High75 °F (Feb 15, 3:30 pm)100% (Feb 10, 3:00 am)30.66 "Hg (Feb 10, 3:00 am)
Low39 °F (Feb 7, 4:30 am)34% (Feb 21, 2:30 pm)29.03 "Hg (Feb 9, 10:00 pm)
Average55 °F72%30.05 "Hg
* Reported Feb 6 2:00 pm — Feb 21 2:30 pm, 43°23'15.9"N, 1°39'51.4"W. Weather by CustomWeather, © 2024

Note: Actual official high and low records may vary slightly from our data, if they occured in-between our weather recording intervals... More about our weather records

43°23'15.9"N, 1°39'51.4"W Weather History for the Previous 24 Hours

Scroll right to see more
 ConditionsComfort  
Time TempWeatherWind HumidityBarometerVisibility
2:30 pm
Wed, Feb 21
64 °FMild.2 mph34%30.15 "HgN/A
2:00 pm64 °FMild.3 mph37%30.18 "HgN/A
1:30 pm63 °FSunny.2 mph49%30.18 "Hg10 mi
1:00 pm63 °FSunny.3 mph45%30.21 "Hg10 mi
12:30 pm61 °FSunny.2 mph48%30.21 "Hg10 mi
12:00 pm59 °FPassing clouds.3 mph55%30.21 "HgN/A
11:30 am59 °FSunny.3 mph45%30.21 "Hg10 mi
11:00 am57 °FPassing clouds.3 mph55%30.24 "HgN/A
10:30 am54 °FSunny.3 mph63%30.24 "Hg10 mi
10:00 am52 °FSunny.3 mph67%30.24 "Hg10 mi
9:30 am50 °FSunny.5 mph71%30.24 "Hg10 mi
9:00 am50 °FSunny.6 mph76%30.24 "Hg10 mi
8:30 am46 °FSunny.5 mph71%30.21 "Hg10 mi
8:00 am41 °FSunny.5 mph81%30.21 "Hg10 mi
7:30 am43 °FClear.3 mph76%30.21 "Hg10 mi
7:00 am43 °FClear.6 mph81%30.21 "Hg10 mi
6:30 am43 °FClear.6 mph76%30.21 "Hg10 mi
6:00 am41 °FClear.7 mph87%30.21 "Hg10 mi
5:30 am39 °FClear.3 mph93%30.21 "Hg10 mi
5:00 am41 °FClear.3 mph93%30.21 "Hg10 mi
4:30 am41 °FClear.6 mph93%30.21 "Hg10 mi
4:00 am43 °FClear.5 mph87%30.24 "Hg10 mi
3:30 am43 °FClear.5 mph87%30.24 "Hg10 mi
3:00 am43 °FClear.5 mph93%30.27 "Hg10 mi
2:30 am43 °FClear.6 mph93%30.27 "Hg10 mi
2:00 am43 °FPassing clouds.6 mph87%30.27 "HgN/A
12:30 am46 °FClear.6 mph82%30.33 "Hg10 mi
12:00 am48 °FClear.3 mph82%30.36 "Hg10 mi
11:30 pm
Tue, Feb 20
48 °FClear.5 mph82%30.36 "Hg10 mi
11:00 pm48 °FClear.5 mph82%30.36 "Hg10 mi
10:30 pm48 °FClear.5 mph82%30.39 "Hg10 mi
10:00 pm48 °FClear.5 mph82%30.39 "Hg10 mi
9:30 pm48 °FClear.7 mph82%30.39 "Hg10 mi
9:00 pm50 °FClear.6 mph76%30.39 "Hg10 mi
8:30 pm50 °FClear.5 mph76%30.39 "Hg10 mi
8:00 pm50 °FClear.5 mph76%30.39 "Hg10 mi
7:30 pm52 °FClear.6 mph72%30.42 "Hg10 mi
7:00 pm54 °FClear.3 mph77%30.42 "Hg10 mi
6:30 pm54 °FPassing clouds.5 mph77%30.42 "HgN/A
6:00 pm55 °FSunny.6 mph72%30.42 "Hg10 mi
5:30 pm55 °FSunny.7 mph72%30.42 "Hg10 mi
5:00 pm55 °FPassing clouds.7 mph72%30.45 "HgN/A
4:30 pm55 °FPassing clouds.7 mph72%30.45 "HgN/A
4:00 pm55 °FPassing clouds.7 mph72%30.45 "HgN/A
Weather by CustomWeather, © 2024

See weather overview